Route Details

Aircraft Information
Group: European Fleet
Types: A30F, A31F, B738
Route Data
Distance: 1606nm
Duration: 3h 45m
Origin METAR: OLBA 080100Z 24008KT 190V270 7000 -RA FEW020 BKN026 08/04 Q1017 NOSIG
Dest. METAR: EDDK 080050Z AUTO VRB01KT CAVOK M03/M07 Q1039 NOSIG
Freight Data
(for Feb 8, 2023)
Load Factor:
63%
Manifested Cargo: 65,885lbs
Financial History
Total Freight: 64,972lbs
Average Load: 0lbs/flt
Fuel Used: 83,370lbs
Avg. Fuel Used: 0lbs/flt
Fuel Expense: $48,854
Avg. Fuel Expense: $0
Avg. Fuel Cost: $0/lbs
Total Gross Income: $179,323
Pilot Pay: $538
Total Expenses: $39,766
Total Revenue: $87,623
Average Revenue: $0

Capitol Logistics 551




OLBA
Rafic Hariri International Airport
Beirut, LB
EDDK
Cologne Bonn Airport
Cologne, DE